Time;durP1;ratioP1;P1;durP2;ratioP2;P2;SDS_P1;SDS_P2;PMS_P1;PMS_P2;Temp;Humidity;BMP_temperature;BMP_pressure;BME280_temperature;BME280_humidity;BME280_pressure;Samples;Min_cycle;Max_cycle;Signal;HPM_P1;HPM_P2
2021/12/19 00:10:13;;;;;;;2.72;1.95;;;;;;;23.20;37.47;95466.63;5050222;28;20122;-53
2021/12/19 00:12:38;;;;;;;3.63;1.70;;;;;;;23.16;37.17;95449.78;5038838;28;20120;-54
2021/12/19 00:15:04;;;;;;;2.50;1.70;;;;;;;23.11;37.16;95460.69;5045225;28;20036;-55
2021/12/19 00:17:30;;;;;;;2.40;1.80;;;;;;;23.04;37.50;95453.75;5050829;28;20029;-58
2021/12/19 00:19:55;;;;;;;2.58;1.77;;;;;;;23.03;37.27;95463.19;5051842;28;20564;-54
2021/12/19 00:22:20;;;;;;;2.67;1.70;;;;;;;22.98;37.37;95455.75;5052683;28;20584;-56
2021/12/19 00:24:46;;;;;;;2.55;1.60;;;;;;;22.93;37.95;95453.75;5053879;28;20025;-56
2021/12/19 00:27:11;;;;;;;2.38;1.60;;;;;;;22.90;37.62;95443.84;5037709;28;20028;-57
2021/12/19 00:29:36;;;;;;;3.03;1.70;;;;;;;22.87;37.87;95441.38;5055341;28;20425;-54
2021/12/19 00:32:02;;;;;;;2.38;1.50;;;;;;;22.84;37.67;95445.09;5044344;28;20025;-54
2021/12/19 00:34:28;;;;;;;2.20;1.45;;;;;;;22.82;37.79;95435.91;5038880;28;20040;-55
2021/12/19 00:36:53;;;;;;;2.40;1.70;;;;;;;22.78;37.67;95440.84;5049780;28;20032;-57
2021/12/19 00:39:18;;;;;;;2.55;1.60;;;;;;;22.75;37.87;95455.44;5050985;28;20033;-53
2021/12/19 00:41:44;;;;;;;2.92;1.48;;;;;;;22.72;37.65;95445.53;5050671;28;20437;-57
2021/12/19 00:44:11;;;;;;;2.65;1.63;;;;;;;22.71;37.76;95452.25;5051174;28;20037;-56
2021/12/19 00:46:50;;;;;;;2.50;1.67;;;;;;;22.64;37.77;95453.47;5053052;28;20096;-56
2021/12/19 00:49:16;;;;;;;2.03;1.40;;;;;;;22.61;38.11;95446.28;5052014;28;20515;-58
2021/12/19 00:51:41;;;;;;;2.75;1.52;;;;;;;22.59;38.19;95450.75;5050802;28;20052;-56
2021/12/19 00:54:10;;;;;;;2.40;1.50;;;;;;;22.55;37.83;95450.25;5049029;28;20505;-58
2021/12/19 00:56:37;;;;;;;2.05;1.40;;;;;;;22.49;38.08;95442.06;5029883;28;20483;-56
2021/12/19 00:59:03;;;;;;;2.28;1.50;;;;;;;22.47;37.93;95432.91;5045326;28;20028;-55
2021/12/19 01:01:28;;;;;;;2.22;1.40;;;;;;;22.41;38.25;95429.44;5026018;28;20044;-55
2021/12/19 01:03:54;;;;;;;2.00;1.33;;;;;;;22.43;38.08;95421.53;5039308;28;20369;-54
2021/12/19 01:06:19;;;;;;;2.40;1.65;;;;;;;22.40;38.28;95417.06;5033154;28;20043;-54
2021/12/19 01:08:46;;;;;;;2.33;1.52;;;;;;;22.39;38.22;95423.75;5044875;28;20510;-54
2021/12/19 01:11:11;;;;;;;2.03;1.42;;;;;;;22.35;38.24;95420.53;5044943;28;20028;-54
2021/12/19 01:13:36;;;;;;;2.15;1.35;;;;;;;22.32;38.46;95409.91;5027960;28;20072;-53
2021/12/19 01:16:02;;;;;;;2.38;1.65;;;;;;;22.31;38.45;95425.47;5044786;28;20020;-55
2021/12/19 01:18:28;;;;;;;2.45;1.52;;;;;;;22.28;38.39;95426.44;5026674;28;20037;-55
2021/12/19 01:20:53;;;;;;;2.40;1.52;;;;;;;22.26;38.46;95411.88;5044799;28;20040;-55
2021/12/19 01:23:19;;;;;;;2.15;1.50;;;;;;;22.23;38.50;95419.03;5044865;28;20175;-57
2021/12/19 01:25:44;;;;;;;2.35;1.55;;;;;;;22.20;38.47;95408.38;5044527;28;20040;-53
2021/12/19 01:28:10;;;;;;;2.55;1.73;;;;;;;22.19;38.52;95415.03;5044733;28;20029;-56
2021/12/19 01:30:35;;;;;;;2.33;1.50;;;;;;;22.17;38.60;95410.06;5055024;28;20029;-54
2021/12/19 01:33:01;;;;;;;2.65;1.60;;;;;;;22.14;38.59;95400.19;5051096;28;20067;-58
2021/12/19 01:35:26;;;;;;;3.03;1.90;;;;;;;22.12;38.35;95386.34;5044797;28;20036;-57
2021/12/19 01:37:52;;;;;;;2.95;1.90;;;;;;;22.12;38.56;95397.22;5044684;28;20040;-57
2021/12/19 01:40:18;;;;;;;2.17;1.40;;;;;;;22.10;38.52;95398.94;5044321;28;20048;-54
2021/12/19 01:42:45;;;;;;;2.33;1.63;;;;;;;22.09;38.51;95392.00;5026456;28;20033;-57
2021/12/19 01:45:12;;;;;;;2.72;1.48;;;;;;;22.04;38.60;95384.59;5026536;28;20033;-57
2021/12/19 01:47:37;;;;;;;2.45;1.60;;;;;;;22.04;38.60;95385.31;5044175;28;21001;-58
2021/12/19 01:50:04;;;;;;;2.33;1.30;;;;;;;22.04;38.46;95385.31;5044564;28;20044;-57
2021/12/19 01:52:30;;;;;;;2.08;1.20;;;;;;;22.01;38.71;95386.28;5034683;28;20228;-58
2021/12/19 01:54:58;;;;;;;2.35;1.75;;;;;;;21.99;38.65;95383.34;5037019;28;20522;-56
2021/12/19 01:57:25;;;;;;;2.78;1.55;;;;;;;21.99;38.72;95377.91;5043904;28;20510;-57
2021/12/19 01:59:51;;;;;;;2.17;1.60;;;;;;;21.96;38.79;95384.31;5043874;28;20072;-58
2021/12/19 02:02:16;;;;;;;2.28;1.70;;;;;;;21.96;38.78;95380.88;5051394;28;20442;-57
2021/12/19 02:04:43;;;;;;;2.15;1.60;;;;;;;21.95;38.78;95377.38;5053024;28;20040;-57
2021/12/19 02:07:09;;;;;;;2.22;1.50;;;;;;;21.92;38.80;95367.50;5043714;28;20059;-59
2021/12/19 02:09:35;;;;;;;2.13;1.45;;;;;;;21.92;38.94;95378.34;5043279;28;20033;-58
2021/12/19 02:12:00;;;;;;;1.70;1.10;;;;;;;21.88;38.78;95365.50;5020835;28;20041;-57
2021/12/19 02:14:26;;;;;;;2.05;1.30;;;;;;;21.90;38.82;95368.47;5032683;28;20036;-58
2021/12/19 02:16:51;;;;;;;2.40;1.30;;;;;;;21.87;38.90;95364.78;5042578;28;20033;-54
2021/12/19 02:19:17;;;;;;;2.40;1.50;;;;;;;21.87;38.84;95361.28;5043866;28;20045;-56
2021/12/19 02:21:42;;;;;;;2.28;1.35;;;;;;;21.86;38.95;95362.53;5044137;28;20036;-57
2021/12/19 02:24:09;;;;;;;2.17;1.60;;;;;;;21.83;38.83;95358.81;5043843;28;20063;-57
2021/12/19 02:26:36;;;;;;;1.70;1.33;;;;;;;21.83;38.67;95358.09;5042510;28;20080;-55
2021/12/19 02:29:01;;;;;;;2.00;1.42;;;;;;;21.82;38.77;95357.31;5043558;28;20036;-58
2021/12/19 02:31:28;;;;;;;1.80;1.20;;;;;;;21.80;38.93;95348.19;5043415;28;20025;-57
2021/12/19 02:34:03;;;;;;;2.13;1.48;;;;;;;21.79;38.76;95352.13;5028464;28;20475;-55
2021/12/19 02:50:07;;;;;;;2.15;1.30;;;;;;;21.73;38.95;95354.09;5043877;28;20090;-54
2021/12/19 02:52:32;;;;;;;1.90;1.30;;;;;;;21.72;38.81;95341.72;5034743;28;20055;-58
2021/12/19 02:54:57;;;;;;;2.00;1.50;;;;;;;21.71;38.88;95345.69;5036716;28;20037;-57
2021/12/19 02:57:23;;;;;;;2.15;1.40;;;;;;;21.69;38.41;95340.75;5043528;28;20029;-56
2021/12/19 02:59:48;;;;;;;1.67;1.08;;;;;;;21.69;38.98;95337.28;5062064;28;20474;-55
2021/12/19 03:02:15;;;;;;;2.45;1.50;;;;;;;21.69;39.05;95337.28;5044327;28;20659;-56
2021/12/19 03:05:00;;;;;;;2.40;1.50;;;;;;;21.69;38.96;95334.56;5042622;28;20033;-58
2021/12/19 03:07:26;;;;;;;1.85;1.17;;;;;;;21.67;39.02;95331.59;5040725;28;20107;-56
2021/12/19 03:17:59;;;;;;;2.25;1.45;;;;;;;21.63;38.92;95328.38;5033970;28;20038;-56
2021/12/19 03:20:28;;;;;;;2.53;1.40;;;;;;;21.61;38.91;95328.88;5063383;28;20032;-59
2021/12/19 03:22:54;;;;;;;2.50;1.55;;;;;;;21.59;38.96;95333.31;5063473;28;20063;-56
2021/12/19 03:25:19;;;;;;;2.20;1.23;;;;;;;21.61;39.01;95336.25;5032297;28;20384;-56
2021/12/19 03:27:45;;;;;;;2.25;1.38;;;;;;;21.60;38.97;95323.94;5042485;28;20212;-56
2021/12/19 03:30:10;;;;;;;2.13;1.25;;;;;;;21.59;38.78;95322.44;5045953;28;20025;-58
2021/12/19 03:32:36;;;;;;;1.98;1.20;;;;;;;21.57;39.09;95330.34;5037091;28;20029;-57
2021/12/19 03:35:01;;;;;;;2.15;1.30;;;;;;;21.56;38.99;95323.41;5040246;28;20120;-56
2021/12/19 03:37:27;;;;;;;1.67;1.20;;;;;;;21.55;39.11;95328.13;5046488;28;20025;-57
2021/12/19 03:40:12;;;;;;;1.80;1.20;;;;;;;21.54;39.08;95323.91;5047009;28;20032;-56
2021/12/19 03:42:42;;;;;;;1.75;1.25;;;;;;;21.55;39.12;95319.19;5046994;28;20025;-55
2021/12/19 03:45:08;;;;;;;;;;;;;;;21.56;39.03;95317.97;5047603;28;20033;-56
2021/12/19 03:47:34;;;;;;;2.00;1.45;;;;;;;21.52;39.06;95320.19;5046484;28;19947;-54
2021/12/19 03:50:00;;;;;;;2.15;1.33;;;;;;;21.50;39.01;95320.66;5046349;28;20442;-58
2021/12/19 03:52:26;;;;;;;1.80;1.20;;;;;;;21.51;39.11;95316.00;5038657;28;20174;-56
2021/12/19 03:54:51;;;;;;;2.38;1.27;;;;;;;21.50;39.06;95306.34;5038729;28;20563;-56
2021/12/19 03:57:17;;;;;;;3.00;1.77;;;;;;;21.47;39.13;95310.03;5046803;28;20045;-56
2021/12/19 03:59:46;;;;;;;2.80;1.33;;;;;;;21.47;39.05;95305.34;5046613;28;20088;-57
2021/12/19 04:02:12;;;;;;;1.95;1.23;;;;;;;21.48;39.21;95306.09;5047037;28;20034;-57
2021/12/19 04:04:39;;;;;;;2.17;1.25;;;;;;;21.47;39.06;95299.19;5049093;28;20032;-56
2021/12/19 04:07:04;;;;;;;2.20;1.30;;;;;;;21.46;39.18;95297.69;5049286;28;20036;-55
2021/12/19 04:09:30;;;;;;;2.80;1.50;;;;;;;21.44;39.09;95294.69;5049063;28;20025;-55
2021/12/19 04:11:56;;;;;;;2.10;1.40;;;;;;;21.39;39.04;95295.44;5043901;28;20040;-57
2021/12/19 04:14:22;;;;;;;2.20;1.40;;;;;;;21.43;39.15;95304.06;5033858;28;20108;-56
2021/12/19 04:16:47;;;;;;;1.63;1.30;;;;;;;21.41;39.09;95295.66;5046778;28;20063;-57
2021/12/19 04:19:13;;;;;;;1.70;1.13;;;;;;;21.41;39.14;95290.25;5046068;28;20518;-57
2021/12/19 04:21:38;;;;;;;1.90;1.20;;;;;;;21.41;39.13;95284.06;5046181;28;20024;-58
2021/12/19 04:24:04;;;;;;;2.10;1.33;;;;;;;21.37;39.00;95278.84;5028528;28;20029;-56
2021/12/19 04:26:29;;;;;;;1.77;1.20;;;;;;;21.37;39.27;95275.41;5028646;28;20091;-56
2021/12/19 04:28:55;;;;;;;2.28;1.38;;;;;;;21.38;38.94;95280.34;5046307;28;20037;-56
2021/12/19 04:31:20;;;;;;;2.00;1.20;;;;;;;21.35;39.06;95278.63;5046970;28;20040;-57
2021/12/19 04:33:46;;;;;;;2.25;1.35;;;;;;;21.37;39.23;95278.84;5014524;28;20034;-56
2021/12/19 04:36:17;;;;;;;1.90;1.33;;;;;;;21.35;39.10;95275.91;5050496;28;20485;-58
2021/12/19 05:15:29;;;;;;;1.88;1.48;;;;;;;21.25;39.10;95261.03;5041676;28;20378;-57
2021/12/19 05:17:59;;;;;;;1.88;1.35;;;;;;;21.26;39.18;95262.53;5045208;28;20037;-55
2021/12/19 05:20:28;;;;;;;1.65;1.30;;;;;;;21.26;39.29;95267.97;5045037;28;20495;-56
2021/12/19 05:22:59;;;;;;;2.60;1.40;;;;;;;21.25;39.19;95266.47;5045428;28;20025;-57
2021/12/19 05:25:25;;;;;;;1.58;1.30;;;;;;;21.24;39.22;95267.72;5044763;28;20426;-57
2021/12/19 05:27:52;;;;;;;2.03;1.15;;;;;;;21.25;39.20;95266.47;5045092;28;20033;-56
2021/12/19 05:30:18;;;;;;;1.73;1.20;;;;;;;21.16;38.86;95255.81;5044912;28;20078;-58
2021/12/19 05:32:44;;;;;;;1.77;1.20;;;;;;;21.25;39.26;95261.03;5034433;28;20038;-58
2021/12/19 05:35:10;;;;;;;2.03;1.17;;;;;;;21.24;39.23;95265.00;5039282;28;20037;-57
2021/12/19 05:45:47;;;;;;;2.20;1.35;;;;;;;21.20;39.12;95258.31;5045218;28;20186;-59
2021/12/19 05:48:13;;;;;;;1.60;1.10;;;;;;;21.21;39.11;95254.34;5044633;28;20112;-57
2021/12/19 05:50:39;;;;;;;4.97;1.20;;;;;;;21.23;39.11;95255.34;5044010;28;20032;-55
2021/12/19 05:53:05;;;;;;;2.05;1.15;;;;;;;21.25;39.35;95261.03;5045962;28;20032;-55
2021/12/19 05:55:30;;;;;;;2.03;1.30;;;;;;;21.28;39.39;95243.75;5048972;28;20112;-55
2021/12/19 05:57:56;;;;;;;1.88;1.30;;;;;;;21.34;39.34;95252.66;5048909;28;20025;-56
2021/12/19 06:00:21;;;;;;;2.10;1.30;;;;;;;21.40;39.25;95245.28;5043614;28;20025;-55
2021/12/19 06:02:47;;;;;;;2.58;1.38;;;;;;;21.47;39.12;95245.56;5052986;28;20025;-57
2021/12/19 06:05:13;;;;;;;2.17;1.13;;;;;;;21.58;38.90;95239.41;5061516;28;20028;-56
2021/12/19 06:07:38;;;;;;;1.85;1.10;;;;;;;21.70;38.54;95240.91;5049697;28;20033;-56
2021/12/19 06:10:04;;;;;;;1.85;1.13;;;;;;;21.84;38.44;95229.06;5047676;28;20033;-57
2021/12/19 06:12:31;;;;;;;1.65;0.90;;;;;;;21.97;38.14;95232.78;5041813;28;20513;-55
2021/12/19 06:14:57;;;;;;;1.80;1.00;;;;;;;22.11;37.87;95232.53;5041492;28;20517;-57
2021/12/19 06:17:22;;;;;;;1.52;1.10;;;;;;;22.25;37.85;95226.13;5026393;28;20033;-57
2021/12/19 06:19:47;;;;;;;2.20;1.10;;;;;;;22.43;37.39;95222.88;5043603;28;20053;-58
2021/12/19 06:22:13;;;;;;;1.55;1.10;;;;;;;22.56;37.17;95217.66;5044150;28;20037;-56
2021/12/19 06:24:38;;;;;;;1.60;1.08;;;;;;;22.71;36.79;95212.69;5044340;28;20011;-58
2021/12/19 06:27:04;;;;;;;1.90;1.15;;;;;;;22.83;36.52;95209.41;5043793;28;20029;-56
2021/12/19 06:29:30;;;;;;;2.30;1.35;;;;;;;22.98;36.33;95205.16;5043016;28;20031;-57
2021/12/19 06:31:55;;;;;;;1.58;1.05;;;;;;;23.13;36.45;95211.03;5040440;28;20160;-57
2021/12/19 06:34:21;;;;;;;1.48;1.02;;;;;;;23.18;36.25;95202.09;5043213;28;20096;-57
2021/12/19 06:36:46;;;;;;;1.65;1.02;;;;;;;23.24;36.21;95202.81;5043582;28;20029;-55
2021/12/19 06:39:11;;;;;;;1.92;1.20;;;;;;;23.30;35.83;95208.97;5042869;28;20025;-58
2021/12/19 06:41:37;;;;;;;1.90;1.20;;;;;;;23.39;36.29;95205.94;5045813;28;20025;-58
2021/12/19 06:44:03;;;;;;;2.40;1.15;;;;;;;23.51;36.37;95202.66;5046922;28;20021;-59
2021/12/19 06:46:29;;;;;;;1.65;1.00;;;;;;;23.61;35.70;95197.63;5046112;28;20017;-60
2021/12/19 06:48:55;;;;;;;2.28;1.17;;;;;;;23.75;35.27;95193.84;5042970;28;20029;-57
2021/12/19 06:51:21;;;;;;;2.15;1.05;;;;;;;23.90;35.13;95194.94;5046017;28;20025;-58
2021/12/19 06:53:47;;;;;;;1.20;0.82;;;;;;;24.03;35.00;95190.38;4991710;28;20042;-59
2021/12/19 06:56:12;;;;;;;2.15;1.33;;;;;;;24.17;35.01;95191.25;5026142;28;20032;-57
2021/12/19 06:58:38;;;;;;;2.10;1.20;;;;;;;24.24;34.74;95185.97;5042291;28;20040;-53
2021/12/19 07:01:03;;;;;;;1.73;1.20;;;;;;;24.32;34.73;95186.91;5048069;28;20035;-54
2021/12/19 07:03:29;;;;;;;1.98;1.17;;;;;;;24.37;33.89;95188.88;5045007;28;20032;-54
2021/12/19 07:05:54;;;;;;;1.52;1.08;;;;;;;24.49;34.31;95201.16;5044563;28;20025;-57
2021/12/19 07:08:21;;;;;;;1.60;1.10;;;;;;;24.64;33.73;95193.31;5047082;28;20044;-55
2021/12/19 07:10:47;;;;;;;1.85;1.38;;;;;;;24.72;33.73;95186.00;5047439;28;20036;-57
2021/12/19 07:13:18;;;;;;;1.70;1.30;;;;;;;24.82;33.70;95196.81;5029206;28;20539;-57
2021/12/19 07:15:44;;;;;;;1.80;1.30;;;;;;;24.91;33.87;95193.72;5047814;28;20041;-53
2021/12/19 07:18:09;;;;;;;2.38;1.40;;;;;;;24.98;33.62;95184.94;5042398;28;20056;-57
2021/12/19 07:20:35;;;;;;;2.53;1.40;;;;;;;25.03;33.49;95181.44;5027669;28;20021;-56
2021/12/19 07:23:01;;;;;;;1.88;1.10;;;;;;;25.11;33.42;95182.34;5031221;28;20017;-56
2021/12/19 07:25:26;;;;;;;2.45;1.10;;;;;;;25.16;33.17;95175.31;5027484;28;20041;-57
2021/12/19 07:27:52;;;;;;;2.60;1.30;;;;;;;25.23;33.28;95175.47;5027344;28;20021;-56
2021/12/19 07:30:17;;;;;;;2.38;1.30;;;;;;;25.30;33.01;95180.31;5027733;28;20569;-57
2021/12/19 07:32:43;;;;;;;2.30;1.48;;;;;;;25.37;33.13;95179.75;5026420;28;20083;-56
2021/12/19 07:35:10;;;;;;;2.80;1.35;;;;;;;25.37;32.96;95175.00;5028313;28;20038;-56
2021/12/19 07:37:37;;;;;;;2.45;1.20;;;;;;;25.46;32.90;95182.09;5028976;28;20025;-56
2021/12/19 07:40:14;;;;;;;3.03;1.65;;;;;;;25.46;32.85;95182.09;5028332;28;20419;-58
2021/12/19 07:42:40;;;;;;;2.33;1.20;;;;;;;25.52;32.83;95174.56;5029001;28;20029;-55
2021/12/19 07:45:06;;;;;;;2.20;1.45;;;;;;;25.53;33.02;95176.00;5028230;28;20041;-56
2021/12/19 07:47:31;;;;;;;3.28;1.30;;;;;;;25.55;32.87;95179.00;5028146;28;20030;-57
2021/12/19 07:49:57;;;;;;;3.70;1.40;;;;;;;25.62;32.80;95172.91;5028177;28;20660;-56
2021/12/19 07:52:22;;;;;;;1.85;1.15;;;;;;;25.54;32.75;95166.56;5028585;28;20629;-54
2021/12/19 07:54:47;;;;;;;2.00;1.30;;;;;;;25.62;32.87;95178.38;5027145;28;20494;-54
2021/12/19 07:57:13;;;;;;;2.45;1.30;;;;;;;25.69;32.61;95167.59;5027465;28;20734;-57
2021/12/19 07:59:38;;;;;;;2.85;1.45;;;;;;;25.72;32.87;95160.34;5026343;28;20562;-57
2021/12/19 08:02:04;;;;;;;3.10;1.45;;;;;;;25.75;32.48;95162.78;5026090;28;20470;-58
2021/12/19 08:04:30;;;;;;;3.40;1.30;;;;;;;25.77;32.42;95168.47;5030016;28;20032;-57
2021/12/19 08:06:56;;;;;;;2.85;1.85;;;;;;;25.83;32.53;95155.47;5024779;28;20065;-58
2021/12/19 08:09:34;;;;;;;2.50;1.40;;;;;;;25.84;32.43;95146.72;5026073;28;20079;-55
2021/12/19 08:12:00;;;;;;;2.88;1.20;;;;;;;25.91;32.41;95129.69;5042328;28;20032;-58
2021/12/19 08:14:25;;;;;;;3.45;1.92;;;;;;;25.95;32.46;95129.38;5038396;28;20035;-57
2021/12/19 08:16:51;;;;;;;6.63;1.73;;;;;;;25.98;32.18;95129.06;5026140;28;20037;-56
2021/12/19 08:19:16;;;;;;;2.78;1.60;;;;;;;25.95;32.49;95124.66;5039433;28;20056;-55
2021/12/19 08:21:42;;;;;;;9.27;5.30;;;;;;;25.95;32.33;95118.44;5045704;28;20036;-53
2021/12/19 08:24:11;;;;;;;23.70;14.10;;;;;;;25.97;32.32;95116.63;5046193;28;20032;-54
2021/12/19 08:26:36;;;;;;;32.75;18.25;;;;;;;26.02;32.56;95102.13;5046575;28;20096;-56
2021/12/19 08:29:02;;;;;;;35.05;19.40;;;;;;;26.03;32.47;95109.06;5046036;28;20139;-57
2021/12/19 08:31:28;;;;;;;32.20;19.33;;;;;;;26.07;32.40;95108.75;5046153;28;20029;-54
2021/12/19 08:33:54;;;;;;;31.65;18.23;;;;;;;25.98;32.36;95079.09;5036662;28;20513;-56
2021/12/19 08:36:19;;;;;;;30.35;16.70;;;;;;;26.13;32.21;95096.47;5063267;28;20040;-56
2021/12/19 08:38:46;;;;;;;28.63;16.17;;;;;;;26.13;32.40;95096.47;5056241;28;20037;-57
2021/12/19 08:41:12;;;;;;;27.20;14.93;;;;;;;26.13;32.23;95107.41;5045855;28;20036;-54
2021/12/19 08:43:37;;;;;;;28.33;15.25;;;;;;;26.12;32.31;95105.94;5045746;28;20467;-56
2021/12/19 08:46:03;;;;;;;24.45;14.52;;;;;;;26.09;32.38;95101.50;5045888;28;20033;-55
2021/12/19 08:48:28;;;;;;;28.50;16.05;;;;;;;26.09;32.54;95101.50;5045869;28;20017;-54
2021/12/19 08:50:54;;;;;;;30.23;17.25;;;;;;;26.14;32.57;95097.19;5051226;28;20032;-57
2021/12/19 08:53:19;;;;;;;26.55;16.33;;;;;;;26.20;32.34;95104.03;5051514;28;20028;-56
2021/12/19 08:55:45;;;;;;;26.42;16.13;;;;;;;26.22;32.41;95106.25;5031525;28;20028;-54
2021/12/19 08:58:10;;;;;;;26.15;15.93;;;;;;;26.24;32.39;95107.19;5047859;28;20029;-53
2021/12/19 09:00:36;;;;;;;26.52;15.55;;;;;;;26.27;32.25;95100.66;4992393;28;20084;-54
2021/12/19 09:03:01;;;;;;;24.33;14.75;;;;;;;26.24;32.00;95096.25;5049604;28;20020;-60
2021/12/19 09:05:28;;;;;;;23.45;14.55;;;;;;;26.27;32.09;95095.94;5049862;28;20514;-57
2021/12/19 09:07:53;;;;;;;22.65;12.98;;;;;;;26.36;31.81;95097.53;5058174;28;20052;-56
2021/12/19 09:10:19;;;;;;;23.00;13.60;;;;;;;26.36;31.87;95081.13;5062579;28;20067;-53
2021/12/19 09:12:45;;;;;;;22.58;13.45;;;;;;;26.38;31.99;95089.53;5043363;28;20059;-57
2021/12/19 09:15:10;;;;;;;19.88;12.85;;;;;;;26.41;32.08;95088.47;5062351;28;20056;-57
2021/12/19 09:17:36;;;;;;;20.75;12.60;;;;;;;26.42;31.89;95084.47;5063183;28;20075;-54
2021/12/19 09:20:02;;;;;;;20.20;12.57;;;;;;;26.44;31.77;95079.22;5058054;28;20033;-55
2021/12/19 09:22:27;;;;;;;17.52;10.77;;;;;;;26.39;31.66;95080.78;5062952;28;20101;-53
2021/12/19 09:24:52;;;;;;;18.30;11.25;;;;;;;26.41;31.46;95080.25;5061996;28;20041;-54
2021/12/19 09:27:18;;;;;;;18.17;10.75;;;;;;;26.42;31.81;95068.06;5053446;28;20032;-53
2021/12/19 09:29:43;;;;;;;17.58;11.15;;;;;;;26.46;31.62;95069.22;5063071;28;20542;-53
2021/12/19 09:32:09;;;;;;;15.75;10.73;;;;;;;26.39;31.73;95058.88;5061760;28;20032;-53
2021/12/19 09:34:34;;;;;;;16.48;10.18;;;;;;;26.38;31.71;95054.69;5061838;28;20123;-54
2021/12/19 09:37:00;;;;;;;16.08;10.23;;;;;;;26.39;31.69;95058.16;5032090;28;20045;-57
2021/12/19 09:39:26;;;;;;;18.38;10.27;;;;;;;26.43;31.44;95044.88;5061550;28;20020;-54
2021/12/19 09:41:56;;;;;;;16.42;9.95;;;;;;;26.40;31.58;95043.19;5060618;28;20056;-58
2021/12/19 09:44:22;;;;;;;17.10;10.68;;;;;;;26.38;31.66;95042.97;5062584;28;20032;-54
2021/12/19 09:46:48;;;;;;;16.85;10.15;;;;;;;26.42;31.56;95041.38;5044533;28;20020;-58
2021/12/19 09:49:14;;;;;;;17.65;9.50;;;;;;;26.44;31.62;95032.66;5045749;28;20111;-57
2021/12/19 09:51:40;;;;;;;15.00;10.02;;;;;;;26.44;31.64;95032.66;5061941;28;20091;-54
2021/12/19 09:54:05;;;;;;;15.15;8.70;;;;;;;26.46;31.60;95030.88;5060037;28;20033;-58
2021/12/19 09:56:33;;;;;;;15.85;9.07;;;;;;;26.42;31.41;95019.47;5060859;28;20471;-57
2021/12/19 09:59:00;;;;;;;14.05;8.88;;;;;;;26.46;31.54;95008.22;5062337;28;20505;-58
2021/12/19 10:01:25;;;;;;;12.05;8.38;;;;;;;26.43;31.28;95006.53;5061721;28;20024;-56
2021/12/19 10:03:51;;;;;;;14.45;8.27;;;;;;;26.48;31.58;94994.72;5058093;28;20024;-57
2021/12/19 10:06:19;;;;;;;13.52;7.85;;;;;;;26.46;31.68;94991.78;5060200;28;20032;-56
2021/12/19 10:08:45;;;;;;;14.77;8.80;;;;;;;26.44;31.69;94980.63;5062272;28;20041;-57
2021/12/19 10:11:30;;;;;;;13.10;8.30;;;;;;;26.47;31.45;94979.56;5062202;28;20028;-55
2021/12/19 10:13:56;;;;;;;11.73;7.80;;;;;;;26.44;31.64;94983.34;5059074;28;20027;-54
2021/12/19 10:16:30;;;;;;;14.98;8.10;;;;;;;26.52;31.46;94981.47;5043782;28;20033;-57
2021/12/19 10:18:59;;;;;;;13.30;7.53;;;;;;;26.45;31.78;94977.34;5060308;28;20048;-52
2021/12/19 10:21:24;;;;;;;12.63;7.78;;;;;;;26.47;31.88;94974.06;5045163;28;20399;-59
2021/12/19 10:23:50;;;;;;;16.27;8.15;;;;;;;26.38;28.56;94966.31;5061979;28;20043;-52
2021/12/19 10:26:15;;;;;;;13.07;7.60;;;;;;;26.40;31.25;94961.06;5051253;28;20546;-55
2021/12/19 10:28:55;;;;;;;11.90;7.30;;;;;;;26.47;31.44;94958.41;5056280;28;20017;-57
2021/12/19 10:31:21;;;;;;;12.30;7.07;;;;;;;26.44;31.65;94955.97;5061162;28;20505;-60
2021/12/19 10:33:47;;;;;;;11.57;7.00;;;;;;;26.44;31.69;94950.50;5062045;28;20021;-55
2021/12/19 10:36:13;;;;;;;10.88;7.05;;;;;;;26.47;31.51;94938.47;5064334;28;20106;-53
2021/12/19 10:38:45;;;;;;;12.68;6.90;;;;;;;26.50;31.70;94935.44;5065916;28;20024;-55
2021/12/19 10:41:14;;;;;;;11.85;6.93;;;;;;;26.49;31.66;94938.69;5066585;28;20521;-53
2021/12/19 10:46:44;;;;;;;12.32;6.68;;;;;;;26.55;31.96;94933.84;5032297;28;20053;-56
2021/12/19 10:49:24;;;;;;;10.23;6.00;;;;;;;26.61;31.47;94932.44;5042703;28;20494;-55
2021/12/19 10:51:50;;;;;;;13.18;6.28;;;;;;;26.56;31.78;94935.28;5061753;28;20417;-55
2021/12/19 10:54:15;;;;;;;11.02;6.55;;;;;;;26.55;31.20;94929.06;5062639;28;20040;-54
2021/12/19 10:56:41;;;;;;;9.88;6.47;;;;;;;26.61;31.68;94926.22;5061542;28;20132;-55
2021/12/19 10:59:13;;;;;;;11.18;6.15;;;;;;;26.57;31.65;94921.06;5063919;28;20326;-56
2021/12/19 11:01:44;;;;;;;9.25;5.90;;;;;;;26.52;31.57;94912.97;5050387;28;20036;-57
2021/12/19 11:04:10;;;;;;;9.20;6.10;;;;;;;26.55;31.62;94912.66;5051918;28;20039;-56
2021/12/19 11:06:40;;;;;;;12.52;6.13;;;;;;;26.55;31.38;94914.66;5048317;28;20054;-52
2021/12/19 11:09:10;;;;;;;9.88;6.30;;;;;;;26.56;31.49;94905.16;5065924;28;20024;-54
2021/12/19 11:11:39;;;;;;;9.32;6.20;;;;;;;26.57;31.53;94898.41;5065849;28;20364;-55
2021/12/19 11:14:05;;;;;;;9.38;5.80;;;;;;;26.60;31.48;94897.34;5063402;28;20410;-58
2021/12/19 11:16:30;;;;;;;10.32;6.13;;;;;;;26.61;31.62;94887.88;5046661;28;20028;-56
2021/12/19 11:18:56;;;;;;;10.77;5.95;;;;;;;26.55;31.37;94884.53;5064411;28;20041;-54
2021/12/19 11:21:22;;;;;;;8.70;5.90;;;;;;;26.59;31.34;94879.44;5065005;28;20024;-54
2021/12/19 11:23:47;;;;;;;8.40;5.45;;;;;;;26.59;31.41;94882.16;5063884;28;20555;-61
2021/12/19 11:26:12;;;;;;;10.23;5.82;;;;;;;26.65;31.42;94878.06;5047107;28;20482;-54
2021/12/19 11:28:38;;;;;;;8.73;5.43;;;;;;;26.64;31.42;94875.84;5041257;28;20028;-54
2021/12/19 11:31:04;;;;;;;8.55;5.70;;;;;;;26.67;31.12;94874.78;5046047;28;20040;-53
2021/12/19 11:33:48;;;;;;;9.23;5.50;;;;;;;26.69;31.44;94877.72;5065014;28;20028;-54
2021/12/19 11:36:14;;;;;;;10.45;6.20;;;;;;;26.64;31.59;94873.09;5060934;28;20135;-53
2021/12/19 11:38:40;;;;;;;9.55;5.47;;;;;;;26.63;31.15;94879.84;5058949;28;20482;-54
2021/12/19 11:41:09;;;;;;;9.38;5.43;;;;;;;26.62;31.57;94883.84;5020671;28;20041;-53
2021/12/19 11:43:38;;;;;;;7.50;4.78;;;;;;;26.53;31.13;94854.19;5061343;28;20024;-55
2021/12/19 11:46:11;;;;;;;7.97;5.28;;;;;;;26.64;31.25;94873.84;5062290;28;20410;-58
2021/12/19 11:48:36;;;;;;;8.73;5.60;;;;;;;26.58;31.49;94861.53;5049798;28;20156;-54
2021/12/19 11:51:08;;;;;;;7.00;4.80;;;;;;;26.59;31.58;94857.53;5065454;28;20064;-52
2021/12/19 11:53:41;;;;;;;8.80;4.55;;;;;;;26.63;31.32;94844.22;5020177;28;20094;-54
2021/12/19 11:56:09;;;;;;;6.47;5.15;;;;;;;26.62;31.72;94845.50;5047870;28;20048;-54
2021/12/19 11:59:01;;;;;;;8.38;4.97;;;;;;;26.71;31.51;94836.81;5035897;28;20108;-53
2021/12/19 12:01:30;;;;;;;8.25;4.55;;;;;;;26.68;31.57;94827.66;5045008;28;20174;-55
2021/12/19 12:04:15;;;;;;;7.10;5.10;;;;;;;26.71;31.56;94834.06;5047143;28;20448;-55
2021/12/19 12:06:42;;;;;;;8.82;4.82;;;;;;;26.68;31.46;94826.91;5045641;28;20491;-54
2021/12/19 12:09:21;;;;;;;8.75;5.18;;;;;;;26.66;31.57;94824.72;5028229;28;20032;-54
2021/12/19 12:11:59;;;;;;;;;;;;;;;26.77;31.27;94819.72;5046164;28;20036;-54
2021/12/19 12:14:29;;;;;;;8.18;5.13;;;;;;;26.66;31.57;94813.03;5046183;28;19928;-54
2021/12/19 12:17:01;;;;;;;9.38;5.00;;;;;;;26.69;31.45;94811.97;5029268;28;20037;-55
2021/12/19 12:19:37;;;;;;;8.57;5.05;;;;;;;26.70;31.30;94813.44;5030661;28;20076;-54
2021/12/19 12:22:29;;;;;;;7.20;4.60;;;;;;;26.72;31.26;94808.16;5047613;28;20045;-51
2021/12/19 12:25:14;;;;;;;7.57;4.75;;;;;;;26.73;31.21;94812.38;5047575;28;20494;-53
2021/12/19 12:27:52;;;;;;;7.40;4.57;;;;;;;26.72;31.35;94799.94;5047155;28;20033;-55
2021/12/19 12:30:47;;;;;;;7.50;4.45;;;;;;;26.78;31.20;94804.72;5028552;28;20567;-53
2021/12/19 12:33:15;;;;;;;6.80;4.57;;;;;;;26.74;31.37;94780.94;5046220;28;20575;-57
2021/12/19 12:35:41;;;;;;;7.25;4.13;;;;;;;26.68;31.44;94767.41;5046271;28;20041;-54
2021/12/19 12:38:07;;;;;;;6.78;4.50;;;;;;;26.72;31.19;94769.78;5028482;28;20114;-53
2021/12/19 12:41:26;;;;;;;7.03;4.22;;;;;;;26.73;31.36;94763.06;5025024;28;20067;-55
2021/12/19 12:43:32;;;;;;;5.65;4.18;;;;;;;26.71;31.31;94765.56;5014093;28;20489;-54
2021/12/19 12:46:04;;;;;;;6.80;4.68;;;;;;;26.68;31.41;94744.72;5057901;28;20032;-56
2021/12/19 12:48:38;;;;;;;7.82;5.30;;;;;;;26.72;31.55;94753.34;5046964;28;20025;-55
2021/12/19 12:51:11;;;;;;;6.93;4.40;;;;;;;26.68;31.39;94752.94;5046149;28;20033;-56